sensor_id;sensor_type;location;lat;lon;timestamp;P1;durP1;ratioP1;P2;durP2;ratioP2
61460;SDS011;47325;50.506;4.472;2023-03-19T00:02:27;4.20;;;1.80;;
61460;SDS011;47325;50.506;4.472;2023-03-19T00:08:11;3.10;;;1.60;;
61460;SDS011;47325;50.506;4.472;2023-03-19T00:13:54;2.40;;;1.90;;
61460;SDS011;47325;50.506;4.472;2023-03-19T00:19:39;2.90;;;1.80;;
61460;SDS011;47325;50.506;4.472;2023-03-19T00:25:23;2.20;;;1.60;;
61460;SDS011;47325;50.506;4.472;2023-03-19T00:31:11;3.20;;;1.70;;
61460;SDS011;47325;50.506;4.472;2023-03-19T00:36:56;2.50;;;1.70;;
61460;SDS011;47325;50.506;4.472;2023-03-19T00:42:39;2.30;;;1.70;;
61460;SDS011;47325;50.506;4.472;2023-03-19T00:48:23;2.10;;;1.70;;
61460;SDS011;47325;50.506;4.472;2023-03-19T00:54:07;2.80;;;1.70;;
61460;SDS011;47325;50.506;4.472;2023-03-19T00:59:51;2.00;;;1.70;;
61460;SDS011;47325;50.506;4.472;2023-03-19T01:05:37;3.10;;;1.70;;
61460;SDS011;47325;50.506;4.472;2023-03-19T01:11:24;2.50;;;1.70;;
61460;SDS011;47325;50.506;4.472;2023-03-19T01:17:07;3.00;;;2.00;;
61460;SDS011;47325;50.506;4.472;2023-03-19T01:22:51;2.80;;;1.70;;
61460;SDS011;47325;50.506;4.472;2023-03-19T01:28:35;2.10;;;1.70;;
61460;SDS011;47325;50.506;4.472;2023-03-19T01:34:19;2.70;;;1.80;;
61460;SDS011;47325;50.506;4.472;2023-03-19T01:40:03;2.00;;;1.70;;
61460;SDS011;47325;50.506;4.472;2023-03-19T01:45:47;2.40;;;1.80;;
61460;SDS011;47325;50.506;4.472;2023-03-19T01:51:35;2.20;;;1.80;;
61460;SDS011;47325;50.506;4.472;2023-03-19T01:57:21;2.50;;;1.90;;
61460;SDS011;47325;50.506;4.472;2023-03-19T02:03:05;3.30;;;1.90;;
61460;SDS011;47325;50.506;4.472;2023-03-19T02:08:49;2.80;;;1.80;;
61460;SDS011;47325;50.506;4.472;2023-03-19T02:14:34;2.20;;;1.80;;
61460;SDS011;47325;50.506;4.472;2023-03-19T02:20:20;3.10;;;1.90;;
61460;SDS011;47325;50.506;4.472;2023-03-19T02:26:08;2.70;;;2.10;;
61460;SDS011;47325;50.506;4.472;2023-03-19T02:31:53;2.80;;;2.00;;
61460;SDS011;47325;50.506;4.472;2023-03-19T02:37:37;2.70;;;2.00;;
61460;SDS011;47325;50.506;4.472;2023-03-19T02:43:20;3.20;;;2.30;;
61460;SDS011;47325;50.506;4.472;2023-03-19T02:49:04;3.20;;;2.20;;
61460;SDS011;47325;50.506;4.472;2023-03-19T02:54:48;3.70;;;2.30;;
61460;SDS011;47325;50.506;4.472;2023-03-19T03:00:32;3.90;;;2.30;;
61460;SDS011;47325;50.506;4.472;2023-03-19T03:06:18;3.00;;;2.20;;
61460;SDS011;47325;50.506;4.472;2023-03-19T03:12:02;3.80;;;2.10;;
61460;SDS011;47325;50.506;4.472;2023-03-19T03:17:46;3.10;;;2.50;;
61460;SDS011;47325;50.506;4.472;2023-03-19T03:23:30;2.70;;;2.30;;
61460;SDS011;47325;50.506;4.472;2023-03-19T03:29:14;3.30;;;2.60;;
61460;SDS011;47325;50.506;4.472;2023-03-19T03:34:58;4.10;;;2.40;;
61460;SDS011;47325;50.506;4.472;2023-03-19T03:40:42;5.20;;;2.70;;
61460;SDS011;47325;50.506;4.472;2023-03-19T03:46:26;3.50;;;2.40;;
61460;SDS011;47325;50.506;4.472;2023-03-19T03:52:10;2.70;;;2.40;;
61460;SDS011;47325;50.506;4.472;2023-03-19T03:57:53;4.30;;;2.60;;
61460;SDS011;47325;50.506;4.472;2023-03-19T04:03:37;4.10;;;2.70;;
61460;SDS011;47325;50.506;4.472;2023-03-19T04:09:21;4.30;;;2.60;;
61460;SDS011;47325;50.506;4.472;2023-03-19T04:15:06;4.00;;;3.10;;
61460;SDS011;47325;50.506;4.472;2023-03-19T04:20:50;3.70;;;2.70;;
61460;SDS011;47325;50.506;4.472;2023-03-19T04:26:34;4.10;;;3.00;;
61460;SDS011;47325;50.506;4.472;2023-03-19T04:32:19;4.40;;;3.00;;
61460;SDS011;47325;50.506;4.472;2023-03-19T04:38:04;3.60;;;3.00;;
61460;SDS011;47325;50.506;4.472;2023-03-19T04:43:48;3.50;;;2.80;;
61460;SDS011;47325;50.506;4.472;2023-03-19T04:49:32;3.80;;;2.90;;
61460;SDS011;47325;50.506;4.472;2023-03-19T04:55:16;3.30;;;3.00;;
61460;SDS011;47325;50.506;4.472;2023-03-19T05:01:00;3.70;;;3.20;;
61460;SDS011;47325;50.506;4.472;2023-03-19T05:06:44;5.10;;;3.10;;
61460;SDS011;47325;50.506;4.472;2023-03-19T05:12:28;3.80;;;3.00;;
61460;SDS011;47325;50.506;4.472;2023-03-19T05:18:11;4.60;;;3.20;;
61460;SDS011;47325;50.506;4.472;2023-03-19T05:23:57;4.40;;;3.20;;
61460;SDS011;47325;50.506;4.472;2023-03-19T05:29:41;3.50;;;3.00;;
61460;SDS011;47325;50.506;4.472;2023-03-19T05:35:25;4.80;;;3.30;;
61460;SDS011;47325;50.506;4.472;2023-03-19T05:41:10;4.10;;;2.90;;
61460;SDS011;47325;50.506;4.472;2023-03-19T05:46:53;6.90;;;3.20;;
61460;SDS011;47325;50.506;4.472;2023-03-19T05:52:38;3.30;;;2.60;;
61460;SDS011;47325;50.506;4.472;2023-03-19T05:58:21;4.00;;;2.80;;
61460;SDS011;47325;50.506;4.472;2023-03-19T06:04:05;4.30;;;3.30;;
61460;SDS011;47325;50.506;4.472;2023-03-19T06:09:51;3.90;;;2.90;;
61460;SDS011;47325;50.506;4.472;2023-03-19T06:15:35;4.60;;;3.10;;
61460;SDS011;47325;50.506;4.472;2023-03-19T06:21:19;3.50;;;2.70;;
61460;SDS011;47325;50.506;4.472;2023-03-19T06:27:03;3.20;;;2.70;;
61460;SDS011;47325;50.506;4.472;2023-03-19T06:32:46;3.10;;;2.60;;
61460;SDS011;47325;50.506;4.472;2023-03-19T06:38:30;3.80;;;2.70;;
61460;SDS011;47325;50.506;4.472;2023-03-19T06:44:14;3.70;;;2.70;;
61460;SDS011;47325;50.506;4.472;2023-03-19T06:49:58;5.20;;;2.90;;
61460;SDS011;47325;50.506;4.472;2023-03-19T06:55:41;4.80;;;2.90;;
61460;SDS011;47325;50.506;4.472;2023-03-19T07:01:28;3.70;;;2.70;;
61460;SDS011;47325;50.506;4.472;2023-03-19T07:07:12;4.10;;;2.90;;
61460;SDS011;47325;50.506;4.472;2023-03-19T07:12:55;3.70;;;2.80;;
61460;SDS011;47325;50.506;4.472;2023-03-19T07:18:39;3.40;;;2.70;;
61460;SDS011;47325;50.506;4.472;2023-03-19T07:24:24;3.80;;;2.80;;
61460;SDS011;47325;50.506;4.472;2023-03-19T07:30:08;4.00;;;2.70;;
61460;SDS011;47325;50.506;4.472;2023-03-19T07:35:52;3.70;;;2.60;;
61460;SDS011;47325;50.506;4.472;2023-03-19T07:41:36;4.40;;;2.90;;
61460;SDS011;47325;50.506;4.472;2023-03-19T07:47:20;4.30;;;3.40;;
61460;SDS011;47325;50.506;4.472;2023-03-19T07:53:12;4.80;;;3.00;;
61460;SDS011;47325;50.506;4.472;2023-03-19T07:58:55;4.10;;;3.30;;
61460;SDS011;47325;50.506;4.472;2023-03-19T08:04:39;5.30;;;3.30;;
61460;SDS011;47325;50.506;4.472;2023-03-19T08:10:23;5.30;;;3.50;;
61460;SDS011;47325;50.506;4.472;2023-03-19T08:16:07;4.60;;;3.50;;
61460;SDS011;47325;50.506;4.472;2023-03-19T08:21:51;4.70;;;3.30;;
61460;SDS011;47325;50.506;4.472;2023-03-19T08:27:35;4.60;;;3.50;;
61460;SDS011;47325;50.506;4.472;2023-03-19T08:33:19;4.30;;;3.40;;
61460;SDS011;47325;50.506;4.472;2023-03-19T08:39:03;4.50;;;3.50;;
61460;SDS011;47325;50.506;4.472;2023-03-19T08:44:47;4.50;;;3.10;;
61460;SDS011;47325;50.506;4.472;2023-03-19T08:50:31;3.90;;;2.80;;
61460;SDS011;47325;50.506;4.472;2023-03-19T08:56:16;3.90;;;3.10;;
61460;SDS011;47325;50.506;4.472;2023-03-19T09:02:00;3.40;;;2.70;;
61460;SDS011;47325;50.506;4.472;2023-03-19T09:07:44;4.20;;;2.90;;
61460;SDS011;47325;50.506;4.472;2023-03-19T09:13:28;4.20;;;2.80;;
61460;SDS011;47325;50.506;4.472;2023-03-19T09:19:12;3.70;;;2.80;;
61460;SDS011;47325;50.506;4.472;2023-03-19T09:24:56;3.20;;;2.30;;
61460;SDS011;47325;50.506;4.472;2023-03-19T09:30:40;3.10;;;2.30;;
61460;SDS011;47325;50.506;4.472;2023-03-19T09:36:24;4.50;;;2.40;;
61460;SDS011;47325;50.506;4.472;2023-03-19T09:42:11;3.20;;;2.40;;
61460;SDS011;47325;50.506;4.472;2023-03-19T09:47:59;3.40;;;2.30;;
61460;SDS011;47325;50.506;4.472;2023-03-19T09:53:46;3.00;;;2.40;;
61460;SDS011;47325;50.506;4.472;2023-03-19T09:59:33;4.40;;;2.50;;
61460;SDS011;47325;50.506;4.472;2023-03-19T10:05:18;3.80;;;2.60;;
61460;SDS011;47325;50.506;4.472;2023-03-19T10:11:15;2.90;;;2.30;;
61460;SDS011;47325;50.506;4.472;2023-03-19T10:17:04;4.00;;;2.20;;
61460;SDS011;47325;50.506;4.472;2023-03-19T10:22:50;3.90;;;2.20;;
61460;SDS011;47325;50.506;4.472;2023-03-19T10:28:36;4.80;;;2.40;;
61460;SDS011;47325;50.506;4.472;2023-03-19T10:34:27;3.60;;;2.50;;
61460;SDS011;47325;50.506;4.472;2023-03-19T10:40:19;3.70;;;2.30;;
61460;SDS011;47325;50.506;4.472;2023-03-19T10:46:03;4.00;;;2.30;;
61460;SDS011;47325;50.506;4.472;2023-03-19T10:51:46;4.00;;;2.30;;
61460;SDS011;47325;50.506;4.472;2023-03-19T10:57:30;3.70;;;1.90;;
61460;SDS011;47325;50.506;4.472;2023-03-19T11:03:25;3.80;;;2.10;;
61460;SDS011;47325;50.506;4.472;2023-03-19T11:09:17;3.80;;;2.00;;
61460;SDS011;47325;50.506;4.472;2023-03-19T11:15:08;3.20;;;1.90;;
61460;SDS011;47325;50.506;4.472;2023-03-19T11:20:56;3.70;;;1.70;;
61460;SDS011;47325;50.506;4.472;2023-03-19T11:26:40;3.40;;;1.90;;
61460;SDS011;47325;50.506;4.472;2023-03-19T11:32:28;3.30;;;1.90;;
61460;SDS011;47325;50.506;4.472;2023-03-19T11:38:17;3.90;;;1.80;;
61460;SDS011;47325;50.506;4.472;2023-03-19T11:44:04;3.90;;;1.80;;
61460;SDS011;47325;50.506;4.472;2023-03-19T11:49:55;5.40;;;1.90;;
61460;SDS011;47325;50.506;4.472;2023-03-19T11:55:45;4.30;;;1.80;;
61460;SDS011;47325;50.506;4.472;2023-03-19T12:07:28;6.10;;;2.70;;
61460;SDS011;47325;50.506;4.472;2023-03-19T12:13:18;8.20;;;2.70;;
61460;SDS011;47325;50.506;4.472;2023-03-19T12:19:10;5.70;;;2.60;;
61460;SDS011;47325;50.506;4.472;2023-03-19T12:30:57;6.80;;;3.20;;
61460;SDS011;47325;50.506;4.472;2023-03-19T12:36:47;6.20;;;3.10;;
61460;SDS011;47325;50.506;4.472;2023-03-19T12:42:32;4.40;;;2.80;;
61460;SDS011;47325;50.506;4.472;2023-03-19T12:48:19;5.10;;;3.00;;
61460;SDS011;47325;50.506;4.472;2023-03-19T12:54:05;5.50;;;2.90;;
61460;SDS011;47325;50.506;4.472;2023-03-19T12:59:52;4.90;;;2.80;;
61460;SDS011;47325;50.506;4.472;2023-03-19T13:05:40;5.10;;;2.90;;
61460;SDS011;47325;50.506;4.472;2023-03-19T13:11:30;6.10;;;2.80;;
61460;SDS011;47325;50.506;4.472;2023-03-19T13:17:19;5.50;;;3.00;;
61460;SDS011;47325;50.506;4.472;2023-03-19T13:23:06;4.90;;;2.60;;
61460;SDS011;47325;50.506;4.472;2023-03-19T13:28:59;4.70;;;2.60;;
61460;SDS011;47325;50.506;4.472;2023-03-19T13:34:43;4.30;;;2.70;;
61460;SDS011;47325;50.506;4.472;2023-03-19T13:40:43;3.90;;;2.80;;
61460;SDS011;47325;50.506;4.472;2023-03-19T13:46:34;4.20;;;2.40;;
61460;SDS011;47325;50.506;4.472;2023-03-19T13:58:17;4.20;;;2.40;;
61460;SDS011;47325;50.506;4.472;2023-03-19T14:04:01;3.10;;;1.80;;
61460;SDS011;47325;50.506;4.472;2023-03-19T14:09:46;3.30;;;2.10;;
61460;SDS011;47325;50.506;4.472;2023-03-19T14:15:32;3.30;;;2.10;;
61460;SDS011;47325;50.506;4.472;2023-03-19T14:21:29;2.80;;;2.00;;
61460;SDS011;47325;50.506;4.472;2023-03-19T14:27:11;3.30;;;2.00;;
61460;SDS011;47325;50.506;4.472;2023-03-19T14:32:58;2.90;;;1.90;;
61460;SDS011;47325;50.506;4.472;2023-03-19T14:38:45;2.70;;;1.70;;
61460;SDS011;47325;50.506;4.472;2023-03-19T14:56:30;3.00;;;2.00;;
61460;SDS011;47325;50.506;4.472;2023-03-19T15:02:21;3.10;;;1.90;;
61460;SDS011;47325;50.506;4.472;2023-03-19T15:08:10;3.20;;;2.20;;
61460;SDS011;47325;50.506;4.472;2023-03-19T15:14:00;3.40;;;2.30;;
61460;SDS011;47325;50.506;4.472;2023-03-19T15:19:47;4.60;;;2.50;;
61460;SDS011;47325;50.506;4.472;2023-03-19T15:25:31;4.30;;;2.50;;
61460;SDS011;47325;50.506;4.472;2023-03-19T15:31:17;3.80;;;2.50;;
61460;SDS011;47325;50.506;4.472;2023-03-19T15:37:21;5.80;;;2.70;;
61460;SDS011;47325;50.506;4.472;2023-03-19T15:43:05;4.20;;;2.90;;
61460;SDS011;47325;50.506;4.472;2023-03-19T15:48:53;4.60;;;3.00;;
61460;SDS011;47325;50.506;4.472;2023-03-19T15:54:39;5.40;;;3.10;;
61460;SDS011;47325;50.506;4.472;2023-03-19T16:00:24;5.40;;;3.30;;
61460;SDS011;47325;50.506;4.472;2023-03-19T16:06:11;5.00;;;3.30;;
61460;SDS011;47325;50.506;4.472;2023-03-19T16:11:56;4.30;;;3.10;;
61460;SDS011;47325;50.506;4.472;2023-03-19T16:17:40;4.80;;;2.60;;
61460;SDS011;47325;50.506;4.472;2023-03-19T16:23:25;5.80;;;3.00;;
61460;SDS011;47325;50.506;4.472;2023-03-19T16:29:19;4.20;;;2.70;;
61460;SDS011;47325;50.506;4.472;2023-03-19T16:35:09;3.50;;;2.50;;
61460;SDS011;47325;50.506;4.472;2023-03-19T16:41:10;5.00;;;2.60;;
61460;SDS011;47325;50.506;4.472;2023-03-19T16:46:49;3.90;;;2.60;;
61460;SDS011;47325;50.506;4.472;2023-03-19T16:52:34;3.20;;;2.40;;
61460;SDS011;47325;50.506;4.472;2023-03-19T16:58:18;5.50;;;2.50;;
61460;SDS011;47325;50.506;4.472;2023-03-19T17:04:08;6.20;;;2.40;;
61460;SDS011;47325;50.506;4.472;2023-03-19T17:09:55;5.00;;;2.60;;
61460;SDS011;47325;50.506;4.472;2023-03-19T17:15:39;3.70;;;2.50;;
61460;SDS011;47325;50.506;4.472;2023-03-19T17:21:24;5.50;;;2.70;;
61460;SDS011;47325;50.506;4.472;2023-03-19T17:27:09;6.00;;;2.60;;
61460;SDS011;47325;50.506;4.472;2023-03-19T17:32:53;4.60;;;2.50;;
61460;SDS011;47325;50.506;4.472;2023-03-19T17:38:38;3.80;;;2.50;;
61460;SDS011;47325;50.506;4.472;2023-03-19T17:44:22;4.80;;;2.50;;
61460;SDS011;47325;50.506;4.472;2023-03-19T17:50:06;5.30;;;2.70;;
61460;SDS011;47325;50.506;4.472;2023-03-19T17:55:52;4.80;;;2.50;;
61460;SDS011;47325;50.506;4.472;2023-03-19T18:01:36;4.00;;;2.40;;
61460;SDS011;47325;50.506;4.472;2023-03-19T18:07:20;5.50;;;2.70;;
61460;SDS011;47325;50.506;4.472;2023-03-19T18:13:04;3.70;;;2.60;;
61460;SDS011;47325;50.506;4.472;2023-03-19T18:18:50;4.80;;;2.50;;
61460;SDS011;47325;50.506;4.472;2023-03-19T18:24:34;3.90;;;2.60;;
61460;SDS011;47325;50.506;4.472;2023-03-19T18:30:20;4.10;;;2.60;;
61460;SDS011;47325;50.506;4.472;2023-03-19T18:36:04;5.80;;;3.50;;
61460;SDS011;47325;50.506;4.472;2023-03-19T18:41:48;6.00;;;3.40;;
61460;SDS011;47325;50.506;4.472;2023-03-19T18:47:32;5.30;;;3.40;;
61460;SDS011;47325;50.506;4.472;2023-03-19T18:53:18;8.10;;;3.30;;
61460;SDS011;47325;50.506;4.472;2023-03-19T18:59:02;4.50;;;3.10;;
61460;SDS011;47325;50.506;4.472;2023-03-19T19:04:50;5.30;;;2.80;;
61460;SDS011;47325;50.506;4.472;2023-03-19T19:10:34;4.50;;;3.00;;
61460;SDS011;47325;50.506;4.472;2023-03-19T19:16:29;6.60;;;2.70;;
61460;SDS011;47325;50.506;4.472;2023-03-19T19:22:11;6.90;;;3.20;;
61460;SDS011;47325;50.506;4.472;2023-03-19T19:27:56;6.40;;;2.80;;
61460;SDS011;47325;50.506;4.472;2023-03-19T19:33:41;5.60;;;2.40;;
61460;SDS011;47325;50.506;4.472;2023-03-19T19:39:24;4.70;;;2.50;;
61460;SDS011;47325;50.506;4.472;2023-03-19T19:45:09;5.50;;;2.70;;
61460;SDS011;47325;50.506;4.472;2023-03-19T19:50:58;4.70;;;2.80;;
61460;SDS011;47325;50.506;4.472;2023-03-19T19:56:44;4.40;;;2.70;;
61460;SDS011;47325;50.506;4.472;2023-03-19T20:02:28;4.40;;;2.80;;
61460;SDS011;47325;50.506;4.472;2023-03-19T20:08:12;5.30;;;2.50;;
61460;SDS011;47325;50.506;4.472;2023-03-19T20:13:56;4.70;;;2.80;;
61460;SDS011;47325;50.506;4.472;2023-03-19T20:19:39;4.10;;;2.60;;
61460;SDS011;47325;50.506;4.472;2023-03-19T20:25:24;4.50;;;2.60;;
61460;SDS011;47325;50.506;4.472;2023-03-19T20:31:09;4.00;;;2.40;;
61460;SDS011;47325;50.506;4.472;2023-03-19T20:36:57;4.70;;;2.60;;
61460;SDS011;47325;50.506;4.472;2023-03-19T20:42:42;4.40;;;2.70;;
61460;SDS011;47325;50.506;4.472;2023-03-19T20:48:26;4.10;;;2.60;;
61460;SDS011;47325;50.506;4.472;2023-03-19T20:54:10;4.20;;;2.60;;
61460;SDS011;47325;50.506;4.472;2023-03-19T20:59:53;4.50;;;2.60;;
61460;SDS011;47325;50.506;4.472;2023-03-19T21:05:37;5.90;;;3.20;;
61460;SDS011;47325;50.506;4.472;2023-03-19T21:11:21;5.30;;;3.50;;
61460;SDS011;47325;50.506;4.472;2023-03-19T21:17:06;7.40;;;3.60;;
61460;SDS011;47325;50.506;4.472;2023-03-19T21:22:51;7.10;;;3.80;;
61460;SDS011;47325;50.506;4.472;2023-03-19T21:28:37;5.20;;;3.70;;
61460;SDS011;47325;50.506;4.472;2023-03-19T21:34:22;6.40;;;3.70;;
61460;SDS011;47325;50.506;4.472;2023-03-19T21:40:07;6.60;;;4.20;;
61460;SDS011;47325;50.506;4.472;2023-03-19T21:45:55;6.60;;;4.00;;
61460;SDS011;47325;50.506;4.472;2023-03-19T21:51:39;7.90;;;3.80;;
61460;SDS011;47325;50.506;4.472;2023-03-19T21:57:23;5.90;;;3.80;;
61460;SDS011;47325;50.506;4.472;2023-03-19T22:03:07;6.30;;;4.10;;
61460;SDS011;47325;50.506;4.472;2023-03-19T22:08:56;6.50;;;3.80;;
61460;SDS011;47325;50.506;4.472;2023-03-19T22:14:39;7.50;;;4.30;;
61460;SDS011;47325;50.506;4.472;2023-03-19T22:20:23;6.70;;;4.20;;
61460;SDS011;47325;50.506;4.472;2023-03-19T22:26:08;6.40;;;4.10;;
61460;SDS011;47325;50.506;4.472;2023-03-19T22:31:57;5.90;;;3.90;;
61460;SDS011;47325;50.506;4.472;2023-03-19T22:37:41;6.50;;;4.10;;
61460;SDS011;47325;50.506;4.472;2023-03-19T22:43:28;5.50;;;4.10;;
61460;SDS011;47325;50.506;4.472;2023-03-19T22:49:14;6.30;;;4.20;;
61460;SDS011;47325;50.506;4.472;2023-03-19T22:54:59;6.90;;;4.60;;
61460;SDS011;47325;50.506;4.472;2023-03-19T23:00:43;6.60;;;4.30;;
61460;SDS011;47325;50.506;4.472;2023-03-19T23:06:26;7.10;;;4.50;;
61460;SDS011;47325;50.506;4.472;2023-03-19T23:12:14;6.50;;;4.50;;
61460;SDS011;47325;50.506;4.472;2023-03-19T23:17:58;6.50;;;4.40;;
61460;SDS011;47325;50.506;4.472;2023-03-19T23:23:42;6.70;;;4.70;;
61460;SDS011;47325;50.506;4.472;2023-03-19T23:29:27;8.70;;;4.80;;
61460;SDS011;47325;50.506;4.472;2023-03-19T23:35:17;7.50;;;4.80;;
61460;SDS011;47325;50.506;4.472;2023-03-19T23:41:01;6.60;;;4.90;;
61460;SDS011;47325;50.506;4.472;2023-03-19T23:46:46;6.70;;;4.70;;
61460;SDS011;47325;50.506;4.472;2023-03-19T23:52:30;6.80;;;4.40;;
61460;SDS011;47325;50.506;4.472;2023-03-19T23:58:14;7.20;;;4.70;;
